createdAt,value
2017-12-28T00:02:08.627Z,95.19
2017-12-28T00:04:37.511Z,93.42
2017-12-28T00:07:06.163Z,94.26
2017-12-28T00:09:34.883Z,94.13
2017-12-28T00:12:03.767Z,94.47
2017-12-28T00:14:32.463Z,94.63
2017-12-28T00:17:01.084Z,93.47
2017-12-28T00:19:30.827Z,93.29
2017-12-28T00:21:59.363Z,94.38
2017-12-28T00:24:28.128Z,93.31
2017-12-28T00:26:56.880Z,93.89
2017-12-28T00:29:25.598Z,93.72
2017-12-28T00:31:55.008Z,94.52
2017-12-28T00:34:24.060Z,94.68
2017-12-28T00:36:52.776Z,94.42
2017-12-28T00:39:21.471Z,93.83
2017-12-28T00:41:50.511Z,94.08
2017-12-28T00:44:19.972Z,95.01
2017-12-28T00:46:48.618Z,94.34
2017-12-28T00:49:17.203Z,94.14
2017-12-28T00:51:45.882Z,94.97
2017-12-28T00:54:14.606Z,95.30
2017-12-28T00:56:43.402Z,94.10
2017-12-28T00:59:11.978Z,93.50
2017-12-28T01:01:40.664Z,93.95
2017-12-28T01:04:09.595Z,94.11
2017-12-28T01:06:39.010Z,94.59
2017-12-28T01:09:08.348Z,95.11
2017-12-28T01:11:37.296Z,93.74
2017-12-28T01:14:06.760Z,93.60
2017-12-28T01:16:35.307Z,94.96
2017-12-28T01:19:04.175Z,95.52
2017-12-28T01:21:33.645Z,94.77
2017-12-28T01:24:02.284Z,94.02
2017-12-28T01:26:31.209Z,93.43
2017-12-28T01:28:59.848Z,93.33
2017-12-28T01:31:29.184Z,93.63
2017-12-28T01:33:57.980Z,93.80
2017-12-28T01:36:26.679Z,94.58
2017-12-28T01:38:55.314Z,94.07
2017-12-28T01:41:25.034Z,92.93
2017-12-28T01:43:53.572Z,92.34
2017-12-28T01:46:22.132Z,93.64
2017-12-28T01:48:50.917Z,95.46
2017-12-28T01:51:19.604Z,93.79
2017-12-28T01:53:48.249Z,94.29
2017-12-28T01:56:16.976Z,95.74
2017-12-28T01:58:45.661Z,94.97
2017-12-28T02:01:14.326Z,94.44
2017-12-28T02:03:43.320Z,94.43
2017-12-28T02:06:12.026Z,94.15
2017-12-28T02:08:40.654Z,94.81
2017-12-28T02:11:10.173Z,94.61
2017-12-28T02:13:39.619Z,94.19
2017-12-28T02:16:08.257Z,92.30
2017-12-28T02:18:38.200Z,92.53
2017-12-28T02:21:06.906Z,92.21
2017-12-28T02:23:35.535Z,94.51
2017-12-28T02:26:05.101Z,93.01
2017-12-28T02:28:33.787Z,92.84
2017-12-28T02:31:02.472Z,92.53
2017-12-28T02:33:31.152Z,90.82
2017-12-28T02:36:01.342Z,91.03
2017-12-28T02:38:29.928Z,91.88
2017-12-28T02:40:58.713Z,91.59
2017-12-28T02:43:27.498Z,91.54
2017-12-28T02:45:56.184Z,91.58
2017-12-28T02:48:25.177Z,91.59
2017-12-28T02:50:53.806Z,92.36
2017-12-28T02:53:23.273Z,92.29
2017-12-28T02:55:52.019Z,91.02
2017-12-28T02:58:20.744Z,90.51
2017-12-28T03:00:49.527Z,90.80
2017-12-28T03:03:18.369Z,92.08
2017-12-28T03:05:47.679Z,91.92
2017-12-28T03:08:16.409Z,92.06
2017-12-28T03:10:45.401Z,90.45
2017-12-28T03:13:14.040Z,91.15
2017-12-28T03:15:43.486Z,92.19
2017-12-28T03:18:12.172Z,91.68
2017-12-28T03:20:40.858Z,91.63
2017-12-28T03:23:09.511Z,91.29
2017-12-28T03:25:38.275Z,91.17
2017-12-28T03:28:07.946Z,90.77
2017-12-28T03:30:36.732Z,89.68
2017-12-28T03:33:05.331Z,90.40
2017-12-28T03:35:34.004Z,90.58
2017-12-28T03:38:02.789Z,91.02
2017-12-28T03:40:31.679Z,89.89
2017-12-28T03:43:00.325Z,90.37
2017-12-28T03:45:29.054Z,89.85
2017-12-28T03:47:57.838Z,92.15
2017-12-28T03:50:26.525Z,92.16
2017-12-28T03:52:55.173Z,93.27
2017-12-28T03:55:23.897Z,94.23
2017-12-28T03:57:52.537Z,93.13
2017-12-28T04:00:21.981Z,93.24
2017-12-28T04:02:51.588Z,92.23
2017-12-28T04:05:20.275Z,92.10
2017-12-28T04:07:48.904Z,92.47
2017-12-28T04:10:18.568Z,92.73
2017-12-28T04:12:47.464Z,92.21
2017-12-28T04:15:16.149Z,91.86
2017-12-28T04:17:45.141Z,91.02
2017-12-28T04:20:14.589Z,90.61
2017-12-28T04:22:43.928Z,90.24
2017-12-28T04:25:12.635Z,90.77
2017-12-28T04:27:41.175Z,91.01
2017-12-28T04:30:09.863Z,90.48
2017-12-28T04:32:38.856Z,91.18
2017-12-28T04:35:07.577Z,91.31
2017-12-28T04:37:36.162Z,90.82
2017-12-28T04:40:04.860Z,91.77
2017-12-28T04:42:33.420Z,91.73
2017-12-28T04:45:02.123Z,90.62
2017-12-28T04:47:30.962Z,91.59
2017-12-28T04:49:59.691Z,91.58
2017-12-28T04:52:28.266Z,92.28
2017-12-28T04:54:57.065Z,91.65
2017-12-28T04:57:25.650Z,91.09
2017-12-28T04:59:54.192Z,91.15
2017-12-28T05:02:23.893Z,91.23
2017-12-28T05:04:53.343Z,89.49
2017-12-28T05:07:21.985Z,90.51
2017-12-28T05:09:50.714Z,91.30
2017-12-28T05:12:19.364Z,90.81
2017-12-28T05:14:48.086Z,90.33
2017-12-28T05:17:16.771Z,90.78
2017-12-28T05:19:45.458Z,90.78
2017-12-28T05:22:14.110Z,90.09
2017-12-28T05:24:42.874Z,89.79
2017-12-28T05:27:11.479Z,90.80
2017-12-28T05:29:40.201Z,90.79
2017-12-28T05:32:08.927Z,92.79
2017-12-28T05:34:37.682Z,91.70
2017-12-28T05:37:06.369Z,91.25
2017-12-28T05:39:35.152Z,91.40
2017-12-28T05:42:03.840Z,91.61
2017-12-28T05:44:32.623Z,91.32
2017-12-28T05:47:01.762Z,90.71
2017-12-28T05:49:31.224Z,89.76
2017-12-28T05:52:00.020Z,89.65
2017-12-28T05:54:28.705Z,90.72
2017-12-28T05:56:57.248Z,92.35
2017-12-28T05:59:25.967Z,91.52
2017-12-28T06:01:55.168Z,91.09
2017-12-28T06:04:23.835Z,90.60
2017-12-28T06:06:52.540Z,89.74
2017-12-28T06:09:21.325Z,89.44
2017-12-28T06:11:50.011Z,89.39
2017-12-28T06:14:18.656Z,89.17
2017-12-28T06:16:47.549Z,89.48
2017-12-28T06:19:16.277Z,89.73
2017-12-28T06:21:44.853Z,88.99
2017-12-28T06:24:13.549Z,89.71
2017-12-28T06:26:42.235Z,89.13
2017-12-28T06:29:10.921Z,88.93
2017-12-28T06:31:39.602Z,89.24
2017-12-28T06:34:08.294Z,89.10
2017-12-28T06:36:36.912Z,89.27
2017-12-28T06:39:06.635Z,87.84
2017-12-28T06:41:36.084Z,89.91
2017-12-28T06:44:04.719Z,90.55
2017-12-28T06:46:34.279Z,91.12
2017-12-28T06:49:02.904Z,90.46
2017-12-28T06:51:32.211Z,86.81
2017-12-28T06:54:01.915Z,88.50
2017-12-28T06:56:31.380Z,88.05
2017-12-28T06:58:59.997Z,87.73
2017-12-28T07:01:28.918Z,89.18
2017-12-28T07:03:57.635Z,88.39
2017-12-28T07:06:26.278Z,88.52
2017-12-28T07:08:55.691Z,87.69
2017-12-28T07:11:24.417Z,89.80
2017-12-28T07:13:53.053Z,89.35
2017-12-28T07:16:22.699Z,87.02
2017-12-28T07:18:51.287Z,87.55
2017-12-28T07:21:19.934Z,88.47
2017-12-28T07:23:48.967Z,86.51
2017-12-28T07:26:17.595Z,87.47
2017-12-28T07:28:47.061Z,89.18
2017-12-28T07:31:15.781Z,88.72
2017-12-28T07:33:45.245Z,90.21
2017-12-28T07:36:13.891Z,89.37
2017-12-28T07:38:42.617Z,90.66
2017-12-28T07:41:11.302Z,91.66
2017-12-28T07:43:39.944Z,92.08
2017-12-28T07:46:08.531Z,93.27
2017-12-28T07:48:37.262Z,93.29
2017-12-28T07:51:05.897Z,91.73
2017-12-28T07:53:35.614Z,91.63
2017-12-28T07:56:04.342Z,93.58
2017-12-28T07:58:33.025Z,93.90
2017-12-28T08:01:01.716Z,92.85
2017-12-28T08:03:30.397Z,91.22
2017-12-28T08:05:59.029Z,91.66
2017-12-28T08:08:28.592Z,92.57
2017-12-28T08:10:57.214Z,92.80
2017-12-28T08:13:26.527Z,92.38
2017-12-28T08:15:56.021Z,92.69
2017-12-28T08:18:25.486Z,92.92
2017-12-28T08:20:54.110Z,91.20
2017-12-28T08:23:23.675Z,92.30
2017-12-28T08:25:52.365Z,93.37
2017-12-28T08:28:22.013Z,93.81
2017-12-28T08:30:51.756Z,93.16
2017-12-28T08:33:20.464Z,94.93
2017-12-28T08:35:49.116Z,94.19
2017-12-28T08:38:18.045Z,94.11
2017-12-28T08:40:46.729Z,94.40
2017-12-28T08:43:15.514Z,92.93
2017-12-28T08:45:44.656Z,94.16
2017-12-28T08:48:14.115Z,93.50
2017-12-28T08:50:42.910Z,92.56
2017-12-28T08:53:11.695Z,92.39
2017-12-28T08:55:41.130Z,90.93
2017-12-28T08:58:09.890Z,91.16
2017-12-28T09:00:38.674Z,91.85
2017-12-28T09:03:07.411Z,91.82
2017-12-28T09:05:36.747Z,92.44
2017-12-28T09:08:05.696Z,91.64
2017-12-28T09:10:35.161Z,92.56
2017-12-28T09:13:03.818Z,93.52
2017-12-28T09:15:32.623Z,93.05
2017-12-28T09:18:02.244Z,93.64
2017-12-28T09:20:31.005Z,93.56
2017-12-28T09:22:59.777Z,92.83
2017-12-28T09:25:28.479Z,92.91
2017-12-28T09:27:57.113Z,93.05
2017-12-28T09:30:26.731Z,92.15
2017-12-28T09:32:55.460Z,91.82
2017-12-28T09:35:24.240Z,92.35
2017-12-28T09:37:53.342Z,91.69
2017-12-28T09:40:21.919Z,90.81
2017-12-28T09:42:50.569Z,91.65
2017-12-28T09:45:19.290Z,91.39
2017-12-28T09:47:47.956Z,90.61
2017-12-28T09:50:16.662Z,88.94
2017-12-28T09:52:45.387Z,86.83
2017-12-28T09:55:14.857Z,87.49
2017-12-28T09:57:43.432Z,88.59
2017-12-28T10:00:12.129Z,88.80
2017-12-28T10:02:40.759Z,90.45
2017-12-28T10:05:10.098Z,91.01
2017-12-28T10:07:38.998Z,90.22
2017-12-28T10:10:07.665Z,89.79
2017-12-28T10:12:36.371Z,90.50
2017-12-28T10:15:05.097Z,89.57
2017-12-28T10:17:33.852Z,91.97
2017-12-28T10:20:02.538Z,90.90
2017-12-28T10:22:31.380Z,91.58
2017-12-28T10:25:00.106Z,90.71
2017-12-28T10:27:28.696Z,89.28
2017-12-28T10:29:57.687Z,91.83
2017-12-28T10:32:26.324Z,92.00
2017-12-28T10:34:55.026Z,94.26
2017-12-28T10:37:24.086Z,94.22
2017-12-28T10:39:52.804Z,93.80
2017-12-28T10:42:21.473Z,93.19
2017-12-28T10:44:50.385Z,92.91
2017-12-28T10:47:19.030Z,91.54
2017-12-28T10:49:47.756Z,87.94
2017-12-28T10:52:17.616Z,87.71
2017-12-28T10:54:47.069Z,84.48
2017-12-28T10:57:15.702Z,85.37
2017-12-28T10:59:45.264Z,85.65
2017-12-28T11:02:13.950Z,85.01
2017-12-28T11:04:42.636Z,86.15
2017-12-28T11:07:11.572Z,89.34
2017-12-28T11:09:41.027Z,87.60
2017-12-28T11:12:09.616Z,87.68
2017-12-28T11:14:38.400Z,84.73
2017-12-28T11:17:07.085Z,83.88
2017-12-28T11:19:35.737Z,86.49
2017-12-28T11:22:04.463Z,83.68
2017-12-28T11:24:33.351Z,85.48
2017-12-28T11:27:02.037Z,84.49
2017-12-28T11:29:30.879Z,88.02
2017-12-28T11:32:00.330Z,84.89
2017-12-28T11:34:29.016Z,83.33
2017-12-28T11:36:57.705Z,84.57
2017-12-28T11:39:26.388Z,83.46
2017-12-28T11:41:55.177Z,83.43
2017-12-28T11:44:23.967Z,84.63
2017-12-28T11:46:52.652Z,84.62
2017-12-28T11:49:22.197Z,87.34
2017-12-28T11:51:51.758Z,88.60
2017-12-28T11:57:30.826Z,89.29
2017-12-28T12:00:04.927Z,86.31
2017-12-28T12:02:39.241Z,85.94
2017-12-28T12:05:07.927Z,86.29
2017-12-28T12:07:46.850Z,85.93
2017-12-28T12:10:15.645Z,88.34
2017-12-28T12:12:44.280Z,88.58
2017-12-28T12:15:14.136Z,89.22
2017-12-28T12:17:42.793Z,88.65
2017-12-28T12:20:11.434Z,88.52
2017-12-28T12:22:40.193Z,88.38
2017-12-28T12:25:08.879Z,90.21
2017-12-28T12:27:37.539Z,88.59
2017-12-28T12:30:06.604Z,87.66
2017-12-28T12:32:35.944Z,88.02
2017-12-28T12:35:04.590Z,90.06
2017-12-28T12:37:34.411Z,86.71
2017-12-28T12:40:03.870Z,88.88
2017-12-28T12:42:32.554Z,90.50
2017-12-28T12:45:01.306Z,90.11
2017-12-28T12:47:29.883Z,89.55
2017-12-28T12:49:58.568Z,89.93
2017-12-28T12:52:27.773Z,88.83
2017-12-28T12:54:56.435Z,87.42
2017-12-28T12:57:25.142Z,88.69
2017-12-28T12:59:54.996Z,88.59
2017-12-28T13:02:24.858Z,88.44
2017-12-28T13:04:53.597Z,87.29
2017-12-28T13:07:23.570Z,84.37
2017-12-28T13:09:52.192Z,86.64
2017-12-28T13:12:21.616Z,84.12
2017-12-28T13:14:50.649Z,84.22
2017-12-28T13:17:19.296Z,83.06
2017-12-28T13:19:48.020Z,84.32
2017-12-28T13:22:16.814Z,84.50
2017-12-28T13:24:45.500Z,83.97
2017-12-28T13:27:14.139Z,84.16
2017-12-28T13:29:43.836Z,84.25
2017-12-28T13:32:13.290Z,82.93
2017-12-28T13:34:41.977Z,80.09
2017-12-28T13:37:10.666Z,76.05
2017-12-28T13:39:39.248Z,76.76
2017-12-28T13:42:07.824Z,76.94
2017-12-28T13:44:36.766Z,77.47
2017-12-28T13:47:06.084Z,78.93
2017-12-28T13:49:34.776Z,79.23
2017-12-28T13:52:03.443Z,78.99
2017-12-28T13:54:32.899Z,78.67
2017-12-28T13:57:01.585Z,78.24
2017-12-28T13:59:30.576Z,77.55
2017-12-28T14:01:59.151Z,76.20
2017-12-28T14:04:27.937Z,75.99
2017-12-28T14:06:56.896Z,74.56
2017-12-28T14:09:25.626Z,74.87
2017-12-28T14:11:54.264Z,74.77
2017-12-28T14:14:23.754Z,75.46
2017-12-28T14:16:53.150Z,75.38
2017-12-28T14:19:22.617Z,75.84
2017-12-28T14:21:51.786Z,75.45
2017-12-28T14:24:20.502Z,75.95
2017-12-28T14:26:49.122Z,76.45
2017-12-28T14:29:18.793Z,76.86
2017-12-28T14:31:47.336Z,76.98
2017-12-28T14:34:16.724Z,76.90
2017-12-28T14:36:46.694Z,76.56
2017-12-28T14:39:15.336Z,77.00
2017-12-28T14:41:43.969Z,77.58
2017-12-28T14:44:12.751Z,77.61
2017-12-28T14:46:42.258Z,78.45
2017-12-28T14:49:10.832Z,79.19
2017-12-28T14:51:39.826Z,79.79
2017-12-28T14:54:08.511Z,79.17
2017-12-28T14:56:37.282Z,78.70
2017-12-28T14:59:06.099Z,78.41
2017-12-28T15:01:34.775Z,78.03
2017-12-28T15:04:03.442Z,76.91
2017-12-28T15:06:32.381Z,76.62
2017-12-28T15:09:01.800Z,76.25
2017-12-28T15:11:30.420Z,76.92
2017-12-28T15:13:59.205Z,77.10
2017-12-28T15:16:28.307Z,77.04
2017-12-28T15:18:56.887Z,77.13
2017-12-28T15:21:25.880Z,76.69
2017-12-28T15:23:54.669Z,74.72
2017-12-28T15:26:23.212Z,73.88
2017-12-28T15:28:53.129Z,73.30
2017-12-28T15:31:21.858Z,72.91
2017-12-28T15:33:50.580Z,72.53
2017-12-28T15:36:22.179Z,71.97
2017-12-28T15:38:51.279Z,70.91
2017-12-28T15:41:19.867Z,70.55
2017-12-28T15:43:49.690Z,71.38
2017-12-28T15:46:18.370Z,71.92
2017-12-28T15:48:46.941Z,72.95
2017-12-28T15:51:16.044Z,74.21
2017-12-28T15:53:44.667Z,74.71
2017-12-28T15:56:14.130Z,75.29
2017-12-28T15:58:42.836Z,76.32
2017-12-28T16:01:11.849Z,76.47
2017-12-28T16:03:41.315Z,77.04
2017-12-28T16:06:10.100Z,77.44
2017-12-28T16:08:38.785Z,77.46
2017-12-28T16:11:07.470Z,77.31
2017-12-28T16:13:36.313Z,77.72
2017-12-28T16:16:05.624Z,78.23
2017-12-28T16:18:34.349Z,79.05
2017-12-28T16:21:03.341Z,79.15
2017-12-28T16:23:31.955Z,80.35
2017-12-28T16:26:00.649Z,80.41
2017-12-28T16:28:30.308Z,80.61
2017-12-28T16:30:59.006Z,80.97
2017-12-28T16:33:27.780Z,81.20
2017-12-28T16:35:56.475Z,81.47
2017-12-28T16:38:25.162Z,81.47
2017-12-28T16:40:53.833Z,81.78
2017-12-28T16:43:22.531Z,82.27
2017-12-28T16:45:51.218Z,82.48
2017-12-28T16:48:20.824Z,82.61
2017-12-28T16:50:49.509Z,82.70
2017-12-28T16:53:18.097Z,83.13
2017-12-28T16:55:46.782Z,83.40
2017-12-28T16:58:15.508Z,83.52
2017-12-28T17:00:44.925Z,84.50
2017-12-28T17:03:13.594Z,84.08
2017-12-28T17:05:43.160Z,83.40
2017-12-28T17:08:14.332Z,83.44
2017-12-28T17:10:43.893Z,83.54
2017-12-28T17:13:12.515Z,83.53
2017-12-28T17:15:41.978Z,83.40
2017-12-28T17:18:10.873Z,83.94
2017-12-28T17:20:39.517Z,84.03
2017-12-28T17:23:08.243Z,84.17
2017-12-28T17:25:37.303Z,84.27
2017-12-28T17:28:05.976Z,84.40
2017-12-28T17:30:34.704Z,84.01
2017-12-28T17:33:03.681Z,84.10
2017-12-28T17:35:32.219Z,84.42
2017-12-28T17:38:01.585Z,84.10
2017-12-28T17:40:30.583Z,83.77
2017-12-28T17:42:59.361Z,83.65
2017-12-28T17:45:27.994Z,83.79
2017-12-28T17:47:57.464Z,83.26
2017-12-28T17:50:26.027Z,83.19
2017-12-28T17:52:54.674Z,82.40
2017-12-28T17:55:23.710Z,82.23
2017-12-28T17:57:52.358Z,81.71
2017-12-28T18:00:21.026Z,81.32
2017-12-28T18:02:50.528Z,82.03
2017-12-28T18:05:19.936Z,81.56
2017-12-28T18:07:49.399Z,82.33
2017-12-28T18:10:18.282Z,82.45
2017-12-28T18:12:46.916Z,82.98
2017-12-28T18:15:16.377Z,83.75
2017-12-28T18:17:45.226Z,84.05
2017-12-28T18:20:13.946Z,84.57
2017-12-28T18:22:42.586Z,84.03
2017-12-28T18:25:11.317Z,84.67
2017-12-28T18:27:39.971Z,84.53
2017-12-28T18:30:08.590Z,84.85
2017-12-28T18:32:37.374Z,85.15
2017-12-28T18:35:06.060Z,85.14
2017-12-28T18:37:34.891Z,85.17
2017-12-28T18:40:04.761Z,85.88
2017-12-28T18:42:33.449Z,85.97
2017-12-28T18:45:02.091Z,86.43
2017-12-28T18:47:31.587Z,86.78
2017-12-28T18:50:01.047Z,86.47
2017-12-28T18:52:29.719Z,86.25
2017-12-28T18:54:58.414Z,85.39
2017-12-28T18:57:26.995Z,85.14
2017-12-28T18:59:55.626Z,84.80
2017-12-28T19:02:25.444Z,84.33
2017-12-28T19:04:54.896Z,85.17
2017-12-28T19:07:23.584Z,84.75
2017-12-28T19:09:52.577Z,85.08
2017-12-28T19:12:21.240Z,84.78
2017-12-28T19:14:49.909Z,84.30
2017-12-28T19:17:18.631Z,84.70
2017-12-28T19:19:47.317Z,84.52
2017-12-28T19:22:16.003Z,84.53
2017-12-28T19:24:44.800Z,84.12
2017-12-28T19:27:13.418Z,83.32
2017-12-28T19:29:42.883Z,83.48
2017-12-28T19:32:11.632Z,83.04
2017-12-28T19:34:40.352Z,83.12
2017-12-28T19:37:08.970Z,82.83
2017-12-28T19:39:39.469Z,82.67
2017-12-28T19:42:08.155Z,82.43
2017-12-28T19:44:36.796Z,82.31
2017-12-28T19:47:05.589Z,82.03
2017-12-28T19:49:34.310Z,81.72
2017-12-28T19:52:09.888Z,81.96
2017-12-28T19:54:38.592Z,81.33
2017-12-28T19:57:07.311Z,81.54
2017-12-28T19:59:36.053Z,81.32
2017-12-28T20:02:04.697Z,81.95
2017-12-28T20:04:33.461Z,81.79
2017-12-28T20:07:02.307Z,82.12
2017-12-28T20:09:31.655Z,82.25
2017-12-28T20:12:00.243Z,82.88
2017-12-28T20:14:29.027Z,82.98
2017-12-28T20:16:57.703Z,83.20
2017-12-28T20:19:26.345Z,83.20
2017-12-28T20:21:55.810Z,84.15
2017-12-28T20:24:24.481Z,84.14
2017-12-28T20:26:53.168Z,83.92
2017-12-28T20:29:21.863Z,83.78
2017-12-28T20:31:50.539Z,84.50
2017-12-28T20:34:19.179Z,84.71
2017-12-28T20:36:48.119Z,85.25
2017-12-28T20:39:16.706Z,85.49
2017-12-28T20:41:45.282Z,84.90
2017-12-28T20:44:15.406Z,85.94
2017-12-28T20:46:44.041Z,86.03
2017-12-28T20:49:13.490Z,85.10
2017-12-28T20:51:42.692Z,85.11
2017-12-28T20:54:11.370Z,84.96
2017-12-28T20:56:40.063Z,84.12
2017-12-28T20:59:09.004Z,84.97
2017-12-28T21:01:38.454Z,84.65
2017-12-28T21:04:07.090Z,85.09
2017-12-28T21:06:36.648Z,84.12
2017-12-28T21:09:05.433Z,83.77
2017-12-28T21:11:34.069Z,82.45
2017-12-28T21:14:02.804Z,82.86
2017-12-28T21:16:31.599Z,83.73
2017-12-28T21:19:00.219Z,85.23
2017-12-28T21:21:29.991Z,85.28
2017-12-28T21:23:58.633Z,84.46
2017-12-28T21:26:27.364Z,82.49
2017-12-28T21:28:56.094Z,84.42
2017-12-28T21:31:25.447Z,81.86
2017-12-28T21:33:54.080Z,81.13
2017-12-28T21:36:23.548Z,80.93
2017-12-28T21:38:52.214Z,82.11
2017-12-28T21:41:20.905Z,82.89
2017-12-28T21:43:49.700Z,84.64
2017-12-28T21:46:18.388Z,85.26
2017-12-28T21:48:46.960Z,85.07
2017-12-28T21:51:15.705Z,85.84
2017-12-28T21:53:45.154Z,84.21
2017-12-28T21:56:14.716Z,85.19
2017-12-28T21:58:43.662Z,86.10
2017-12-28T22:01:12.243Z,85.17
2017-12-28T22:03:40.929Z,84.65
2017-12-28T22:06:09.665Z,85.59
2017-12-28T22:08:39.113Z,86.06
2017-12-28T22:11:07.750Z,85.00
2017-12-28T22:13:37.463Z,85.27
2017-12-28T22:16:06.914Z,88.28
2017-12-28T22:18:36.422Z,87.62
2017-12-28T22:21:05.920Z,86.70
2017-12-28T22:23:34.564Z,86.91
2017-12-28T22:26:03.157Z,86.94
2017-12-28T22:28:32.249Z,85.86
2017-12-28T22:31:00.970Z,85.60
2017-12-28T22:33:29.635Z,88.44
2017-12-28T22:35:58.503Z,89.84
2017-12-28T22:38:27.979Z,89.89
2017-12-28T22:40:56.738Z,89.25
2017-12-28T22:43:25.627Z,87.87
2017-12-28T22:45:54.313Z,87.29
2017-12-28T22:48:22.998Z,87.20
2017-12-28T22:50:51.683Z,87.99
2017-12-28T22:53:20.227Z,86.79
2017-12-28T22:55:49.622Z,86.76
2017-12-28T22:58:19.114Z,86.94
2017-12-28T23:00:48.578Z,87.01
2017-12-28T23:03:17.264Z,87.22
2017-12-28T23:05:46.059Z,86.35
2017-12-28T23:08:14.755Z,85.87
2017-12-28T23:10:44.966Z,85.26
2017-12-28T23:13:14.469Z,84.55
2017-12-28T23:15:43.150Z,84.62
2017-12-28T23:18:11.738Z,84.67
2017-12-28T23:20:40.522Z,85.41
2017-12-28T23:23:09.207Z,86.05
2017-12-28T23:25:37.893Z,86.89
2017-12-28T23:28:06.676Z,85.79
2017-12-28T23:30:35.373Z,84.42
2017-12-28T23:33:04.058Z,85.50
2017-12-28T23:35:32.783Z,86.46
2017-12-28T23:38:02.246Z,83.92
2017-12-28T23:40:30.929Z,86.76
2017-12-28T23:42:59.708Z,87.81
2017-12-28T23:45:28.299Z,88.49
2017-12-28T23:47:56.889Z,86.85
2017-12-28T23:50:25.671Z,88.69
2017-12-28T23:52:55.258Z,89.82
2017-12-28T23:55:23.926Z,89.34
2017-12-28T23:57:52.593Z,89.53
